Calvin, Louisiana
Current Conditions -  °F | °C
As of 9:15 AM on Friday 31 Oct 2014 (Local Time) from KIER Reporting Station
Clear Clear  
Wind Chill: 58°   Ceiling: Unl
Heat Index: 58°   Visibility: 10mi
Dew Point: 50°   Wind: 8mph
Humidity: 75%   Direction: 330°NNW
Pressure: 30.16"   Gusts: NA
Location:  31.97°N, 92.78°W
Report Text: KIER 311415Z AUTO 33007KT 10SM CLR 15/10 A3016 RMK AO2 T01450102
Loading
Personal Weather Stations






























Interactive Weather Map
Tropical Storm Tracking
New forecast layout! Learn more

10-Day Weather Forecast

Advertisements
Track Severe Weather on mobile